sensor_id;sensor_type;location;lat;lon;timestamp;P1;durP1;ratioP1;P2;durP2;ratioP2
48797;SDS011;34610;44.096;39.070;2022-10-26T00:02:29;0.00;;;0.00;;
48797;SDS011;34610;44.096;39.070;2022-10-26T00:05:35;0.00;;;0.00;;
48797;SDS011;34610;44.096;39.070;2022-10-26T00:08:39;0.00;;;0.00;;
48797;SDS011;34610;44.096;39.070;2022-10-26T00:11:44;0.00;;;0.00;;
48797;SDS011;34610;44.096;39.070;2022-10-26T00:14:48;0.00;;;0.00;;
48797;SDS011;34610;44.096;39.070;2022-10-26T00:17:57;0.00;;;0.00;;
48797;SDS011;34610;44.096;39.070;2022-10-26T00:21:02;0.00;;;0.00;;
48797;SDS011;34610;44.096;39.070;2022-10-26T00:24:10;0.10;;;0.10;;
48797;SDS011;34610;44.096;39.070;2022-10-26T00:27:14;0.05;;;0.05;;
48797;SDS011;34610;44.096;39.070;2022-10-26T00:30:20;0.00;;;0.00;;
48797;SDS011;34610;44.096;39.070;2022-10-26T00:33:27;0.00;;;0.00;;
48797;SDS011;34610;44.096;39.070;2022-10-26T00:36:35;0.00;;;0.00;;
48797;SDS011;34610;44.096;39.070;2022-10-26T00:39:40;0.10;;;0.10;;
48797;SDS011;34610;44.096;39.070;2022-10-26T00:42:46;0.00;;;0.00;;
48797;SDS011;34610;44.096;39.070;2022-10-26T00:45:53;0.00;;;0.00;;
48797;SDS011;34610;44.096;39.070;2022-10-26T00:49:04;0.00;;;0.00;;
48797;SDS011;34610;44.096;39.070;2022-10-26T00:52:09;0.00;;;0.00;;
48797;SDS011;34610;44.096;39.070;2022-10-26T00:55:14;0.00;;;0.00;;
48797;SDS011;34610;44.096;39.070;2022-10-26T00:58:25;0.00;;;0.00;;
48797;SDS011;34610;44.096;39.070;2022-10-26T01:01:32;0.00;;;0.00;;
48797;SDS011;34610;44.096;39.070;2022-10-26T01:04:41;0.03;;;0.03;;
48797;SDS011;34610;44.096;39.070;2022-10-26T01:07:49;0.08;;;0.08;;
48797;SDS011;34610;44.096;39.070;2022-10-26T01:10:57;0.10;;;0.10;;
48797;SDS011;34610;44.096;39.070;2022-10-26T01:14:02;0.00;;;0.00;;
48797;SDS011;34610;44.096;39.070;2022-10-26T01:27:17;0.00;;;0.00;;
48797;SDS011;34610;44.096;39.070;2022-10-26T01:33:36;0.00;;;0.00;;
48797;SDS011;34610;44.096;39.070;2022-10-26T01:36:50;0.00;;;0.00;;
48797;SDS011;34610;44.096;39.070;2022-10-26T01:40:02;0.00;;;0.00;;
48797;SDS011;34610;44.096;39.070;2022-10-26T01:46:14;0.00;;;0.00;;
48797;SDS011;34610;44.096;39.070;2022-10-26T01:49:24;0.00;;;0.00;;
48797;SDS011;34610;44.096;39.070;2022-10-26T01:52:29;0.03;;;0.03;;
48797;SDS011;34610;44.096;39.070;2022-10-26T01:55:47;0.00;;;0.00;;
48797;SDS011;34610;44.096;39.070;2022-10-26T02:02:24;0.00;;;0.00;;
48797;SDS011;34610;44.096;39.070;2022-10-26T02:05:37;0.00;;;0.00;;
48797;SDS011;34610;44.096;39.070;2022-10-26T02:12:19;0.00;;;0.00;;
48797;SDS011;34610;44.096;39.070;2022-10-26T02:22:42;0.00;;;0.00;;
48797;SDS011;34610;44.096;39.070;2022-10-26T02:25:49;0.00;;;0.00;;
48797;SDS011;34610;44.096;39.070;2022-10-26T02:28:57;0.00;;;0.00;;
48797;SDS011;34610;44.096;39.070;2022-10-26T02:32:04;0.00;;;0.00;;
48797;SDS011;34610;44.096;39.070;2022-10-26T02:35:11;0.00;;;0.00;;
48797;SDS011;34610;44.096;39.070;2022-10-26T02:38:19;0.00;;;0.00;;
48797;SDS011;34610;44.096;39.070;2022-10-26T02:41:27;0.00;;;0.00;;
48797;SDS011;34610;44.096;39.070;2022-10-26T02:44:35;0.00;;;0.00;;
48797;SDS011;34610;44.096;39.070;2022-10-26T02:47:41;0.00;;;0.00;;
48797;SDS011;34610;44.096;39.070;2022-10-26T02:50:59;0.00;;;0.00;;
48797;SDS011;34610;44.096;39.070;2022-10-26T02:54:16;0.00;;;0.00;;
48797;SDS011;34610;44.096;39.070;2022-10-26T02:57:33;0.00;;;0.00;;
48797;SDS011;34610;44.096;39.070;2022-10-26T03:00:43;0.00;;;0.00;;
48797;SDS011;34610;44.096;39.070;2022-10-26T03:03:49;0.00;;;0.00;;
48797;SDS011;34610;44.096;39.070;2022-10-26T03:06:55;0.00;;;0.00;;
48797;SDS011;34610;44.096;39.070;2022-10-26T03:10:01;0.00;;;0.00;;
48797;SDS011;34610;44.096;39.070;2022-10-26T03:13:07;0.00;;;0.00;;
48797;SDS011;34610;44.096;39.070;2022-10-26T03:16:12;0.03;;;0.03;;
48797;SDS011;34610;44.096;39.070;2022-10-26T03:19:16;0.00;;;0.00;;
48797;SDS011;34610;44.096;39.070;2022-10-26T03:22:21;0.00;;;0.00;;
48797;SDS011;34610;44.096;39.070;2022-10-26T03:25:29;0.00;;;0.00;;
48797;SDS011;34610;44.096;39.070;2022-10-26T03:28:34;0.00;;;0.00;;
48797;SDS011;34610;44.096;39.070;2022-10-26T03:31:39;0.00;;;0.00;;
48797;SDS011;34610;44.096;39.070;2022-10-26T03:34:43;0.00;;;0.00;;
48797;SDS011;34610;44.096;39.070;2022-10-26T03:37:51;0.10;;;0.10;;
48797;SDS011;34610;44.096;39.070;2022-10-26T03:40:58;0.00;;;0.00;;
48797;SDS011;34610;44.096;39.070;2022-10-26T03:44:03;0.00;;;0.00;;
48797;SDS011;34610;44.096;39.070;2022-10-26T03:47:07;0.00;;;0.00;;
48797;SDS011;34610;44.096;39.070;2022-10-26T03:50:12;0.00;;;0.00;;
48797;SDS011;34610;44.096;39.070;2022-10-26T03:53:16;0.00;;;0.00;;
48797;SDS011;34610;44.096;39.070;2022-10-26T03:56:21;0.00;;;0.00;;
48797;SDS011;34610;44.096;39.070;2022-10-26T03:59:27;0.10;;;0.10;;
48797;SDS011;34610;44.096;39.070;2022-10-26T04:02:31;0.00;;;0.00;;
48797;SDS011;34610;44.096;39.070;2022-10-26T04:05:38;0.00;;;0.00;;
48797;SDS011;34610;44.096;39.070;2022-10-26T04:08:42;0.00;;;0.00;;
48797;SDS011;34610;44.096;39.070;2022-10-26T04:11:49;0.00;;;0.00;;
48797;SDS011;34610;44.096;39.070;2022-10-26T04:14:53;0.00;;;0.00;;
48797;SDS011;34610;44.096;39.070;2022-10-26T04:18:04;0.00;;;0.00;;
48797;SDS011;34610;44.096;39.070;2022-10-26T04:24:15;0.00;;;0.00;;
48797;SDS011;34610;44.096;39.070;2022-10-26T04:27:20;0.00;;;0.00;;
48797;SDS011;34610;44.096;39.070;2022-10-26T04:30:30;0.00;;;0.00;;
48797;SDS011;34610;44.096;39.070;2022-10-26T04:33:34;0.00;;;0.00;;
48797;SDS011;34610;44.096;39.070;2022-10-26T04:36:40;0.00;;;0.00;;
48797;SDS011;34610;44.096;39.070;2022-10-26T04:39:45;0.00;;;0.00;;
48797;SDS011;34610;44.096;39.070;2022-10-26T04:42:49;0.00;;;0.00;;
48797;SDS011;34610;44.096;39.070;2022-10-26T04:45:54;0.00;;;0.00;;
48797;SDS011;34610;44.096;39.070;2022-10-26T04:48:59;0.00;;;0.00;;
48797;SDS011;34610;44.096;39.070;2022-10-26T04:52:04;0.00;;;0.00;;
48797;SDS011;34610;44.096;39.070;2022-10-26T04:55:09;0.00;;;0.00;;
48797;SDS011;34610;44.096;39.070;2022-10-26T04:58:13;0.00;;;0.00;;
48797;SDS011;34610;44.096;39.070;2022-10-26T05:01:22;0.00;;;0.00;;
48797;SDS011;34610;44.096;39.070;2022-10-26T05:04:30;0.00;;;0.00;;
48797;SDS011;34610;44.096;39.070;2022-10-26T05:07:34;0.00;;;0.00;;
48797;SDS011;34610;44.096;39.070;2022-10-26T05:10:41;0.00;;;0.00;;
48797;SDS011;34610;44.096;39.070;2022-10-26T05:13:46;0.00;;;0.00;;
48797;SDS011;34610;44.096;39.070;2022-10-26T05:16:53;0.00;;;0.00;;
48797;SDS011;34610;44.096;39.070;2022-10-26T05:20:08;0.00;;;0.00;;
48797;SDS011;34610;44.096;39.070;2022-10-26T05:23:16;0.00;;;0.00;;
48797;SDS011;34610;44.096;39.070;2022-10-26T05:26:24;0.00;;;0.00;;
48797;SDS011;34610;44.096;39.070;2022-10-26T05:29:33;0.00;;;0.00;;
48797;SDS011;34610;44.096;39.070;2022-10-26T05:32:38;0.00;;;0.00;;
48797;SDS011;34610;44.096;39.070;2022-10-26T05:35:45;0.00;;;0.00;;
48797;SDS011;34610;44.096;39.070;2022-10-26T05:38:51;0.00;;;0.00;;
48797;SDS011;34610;44.096;39.070;2022-10-26T05:41:56;0.20;;;0.20;;
48797;SDS011;34610;44.096;39.070;2022-10-26T05:45:00;0.10;;;0.10;;
48797;SDS011;34610;44.096;39.070;2022-10-26T05:48:07;0.00;;;0.00;;
48797;SDS011;34610;44.096;39.070;2022-10-26T05:51:11;0.08;;;0.08;;
48797;SDS011;34610;44.096;39.070;2022-10-26T05:54:15;0.00;;;0.00;;
48797;SDS011;34610;44.096;39.070;2022-10-26T05:57:20;0.00;;;0.00;;
48797;SDS011;34610;44.096;39.070;2022-10-26T06:00:25;0.03;;;0.03;;
48797;SDS011;34610;44.096;39.070;2022-10-26T06:06:53;0.03;;;0.03;;
48797;SDS011;34610;44.096;39.070;2022-10-26T06:09:58;0.00;;;0.00;;
48797;SDS011;34610;44.096;39.070;2022-10-26T06:13:02;0.00;;;0.00;;
48797;SDS011;34610;44.096;39.070;2022-10-26T06:16:23;0.00;;;0.00;;
48797;SDS011;34610;44.096;39.070;2022-10-26T06:19:40;0.00;;;0.00;;
48797;SDS011;34610;44.096;39.070;2022-10-26T06:27:14;0.00;;;0.00;;
48797;SDS011;34610;44.096;39.070;2022-10-26T06:29:56;0.00;;;0.00;;
48797;SDS011;34610;44.096;39.070;2022-10-26T06:33:04;0.00;;;0.00;;
48797;SDS011;34610;44.096;39.070;2022-10-26T06:36:12;0.00;;;0.00;;
48797;SDS011;34610;44.096;39.070;2022-10-26T06:39:23;0.00;;;0.00;;
48797;SDS011;34610;44.096;39.070;2022-10-26T06:42:30;0.00;;;0.00;;
48797;SDS011;34610;44.096;39.070;2022-10-26T06:45:35;0.00;;;0.00;;
48797;SDS011;34610;44.096;39.070;2022-10-26T06:49:00;0.00;;;0.00;;
48797;SDS011;34610;44.096;39.070;2022-10-26T06:55:28;0.00;;;0.00;;
48797;SDS011;34610;44.096;39.070;2022-10-26T06:58:38;0.00;;;0.00;;
48797;SDS011;34610;44.096;39.070;2022-10-26T07:01:43;4.28;;;4.07;;
48797;SDS011;34610;44.096;39.070;2022-10-26T07:04:47;0.00;;;0.00;;
48797;SDS011;34610;44.096;39.070;2022-10-26T07:07:51;0.00;;;0.00;;
48797;SDS011;34610;44.096;39.070;2022-10-26T07:10:56;0.00;;;0.00;;
48797;SDS011;34610;44.096;39.070;2022-10-26T07:14:00;0.00;;;0.00;;
48797;SDS011;34610;44.096;39.070;2022-10-26T07:17:05;0.00;;;0.00;;
48797;SDS011;34610;44.096;39.070;2022-10-26T07:20:10;0.00;;;0.00;;
48797;SDS011;34610;44.096;39.070;2022-10-26T07:23:17;0.00;;;0.00;;
48797;SDS011;34610;44.096;39.070;2022-10-26T07:26:22;0.00;;;0.00;;
48797;SDS011;34610;44.096;39.070;2022-10-26T07:29:28;0.13;;;0.13;;
48797;SDS011;34610;44.096;39.070;2022-10-26T07:32:33;0.00;;;0.00;;
48797;SDS011;34610;44.096;39.070;2022-10-26T07:35:37;0.10;;;0.10;;
48797;SDS011;34610;44.096;39.070;2022-10-26T07:38:42;0.00;;;0.00;;
48797;SDS011;34610;44.096;39.070;2022-10-26T07:41:46;0.00;;;0.00;;
48797;SDS011;34610;44.096;39.070;2022-10-26T07:44:54;0.00;;;0.00;;
48797;SDS011;34610;44.096;39.070;2022-10-26T07:47:59;0.00;;;0.00;;
48797;SDS011;34610;44.096;39.070;2022-10-26T07:51:05;0.10;;;0.10;;
48797;SDS011;34610;44.096;39.070;2022-10-26T07:54:10;0.00;;;0.00;;
48797;SDS011;34610;44.096;39.070;2022-10-26T07:57:15;0.00;;;0.00;;
48797;SDS011;34610;44.096;39.070;2022-10-26T08:00:19;0.00;;;0.00;;
48797;SDS011;34610;44.096;39.070;2022-10-26T08:03:24;0.00;;;0.00;;
48797;SDS011;34610;44.096;39.070;2022-10-26T08:06:28;0.00;;;0.00;;
48797;SDS011;34610;44.096;39.070;2022-10-26T08:09:35;0.00;;;0.00;;
48797;SDS011;34610;44.096;39.070;2022-10-26T08:12:40;0.00;;;0.00;;
48797;SDS011;34610;44.096;39.070;2022-10-26T08:15:44;0.00;;;0.00;;
48797;SDS011;34610;44.096;39.070;2022-10-26T08:18:51;0.00;;;0.00;;
48797;SDS011;34610;44.096;39.070;2022-10-26T08:21:56;0.00;;;0.00;;
48797;SDS011;34610;44.096;39.070;2022-10-26T08:25:00;0.00;;;0.00;;
48797;SDS011;34610;44.096;39.070;2022-10-26T08:28:07;0.00;;;0.00;;
48797;SDS011;34610;44.096;39.070;2022-10-26T08:31:13;0.00;;;0.00;;
48797;SDS011;34610;44.096;39.070;2022-10-26T08:34:18;0.00;;;0.00;;
48797;SDS011;34610;44.096;39.070;2022-10-26T08:37:26;0.00;;;0.00;;
48797;SDS011;34610;44.096;39.070;2022-10-26T08:40:31;0.00;;;0.00;;
48797;SDS011;34610;44.096;39.070;2022-10-26T08:46:44;0.00;;;0.00;;
48797;SDS011;34610;44.096;39.070;2022-10-26T08:56:25;0.00;;;0.00;;
48797;SDS011;34610;44.096;39.070;2022-10-26T08:59:33;0.03;;;0.03;;
48797;SDS011;34610;44.096;39.070;2022-10-26T09:02:39;0.03;;;0.03;;
48797;SDS011;34610;44.096;39.070;2022-10-26T09:24:38;0.00;;;0.00;;
48797;SDS011;34610;44.096;39.070;2022-10-26T09:27:56;0.00;;;0.00;;
48797;SDS011;34610;44.096;39.070;2022-10-26T09:31:03;0.00;;;0.00;;
48797;SDS011;34610;44.096;39.070;2022-10-26T09:34:11;0.10;;;0.10;;
48797;SDS011;34610;44.096;39.070;2022-10-26T09:37:28;0.00;;;0.00;;
48797;SDS011;34610;44.096;39.070;2022-10-26T09:40:42;0.00;;;0.00;;
48797;SDS011;34610;44.096;39.070;2022-10-26T09:44:04;0.00;;;0.00;;
48797;SDS011;34610;44.096;39.070;2022-10-26T09:47:24;0.00;;;0.00;;
48797;SDS011;34610;44.096;39.070;2022-10-26T09:53:34;0.00;;;0.00;;
48797;SDS011;34610;44.096;39.070;2022-10-26T09:56:39;0.00;;;0.00;;
48797;SDS011;34610;44.096;39.070;2022-10-26T09:59:45;0.05;;;0.05;;
48797;SDS011;34610;44.096;39.070;2022-10-26T10:02:56;0.00;;;0.00;;
48797;SDS011;34610;44.096;39.070;2022-10-26T10:06:14;0.00;;;0.00;;
48797;SDS011;34610;44.096;39.070;2022-10-26T10:09:20;0.00;;;0.00;;
48797;SDS011;34610;44.096;39.070;2022-10-26T10:12:24;0.00;;;0.00;;
48797;SDS011;34610;44.096;39.070;2022-10-26T10:15:31;0.00;;;0.00;;
48797;SDS011;34610;44.096;39.070;2022-10-26T10:18:35;0.00;;;0.00;;
48797;SDS011;34610;44.096;39.070;2022-10-26T10:21:47;0.00;;;0.00;;
48797;SDS011;34610;44.096;39.070;2022-10-26T10:24:57;0.00;;;0.00;;
48797;SDS011;34610;44.096;39.070;2022-10-26T10:28:19;0.10;;;0.10;;
48797;SDS011;34610;44.096;39.070;2022-10-26T10:31:29;0.00;;;0.00;;
48797;SDS011;34610;44.096;39.070;2022-10-26T10:34:37;0.08;;;0.08;;
48797;SDS011;34610;44.096;39.070;2022-10-26T10:37:42;0.00;;;0.00;;
48797;SDS011;34610;44.096;39.070;2022-10-26T10:40:57;0.00;;;0.00;;
48797;SDS011;34610;44.096;39.070;2022-10-26T10:47:15;0.00;;;0.00;;
48797;SDS011;34610;44.096;39.070;2022-10-26T10:50:22;0.03;;;0.03;;
48797;SDS011;34610;44.096;39.070;2022-10-26T10:53:35;0.00;;;0.00;;
48797;SDS011;34610;44.096;39.070;2022-10-26T11:00:07;0.00;;;0.00;;
48797;SDS011;34610;44.096;39.070;2022-10-26T11:03:14;0.00;;;0.00;;
48797;SDS011;34610;44.096;39.070;2022-10-26T11:06:30;0.00;;;0.00;;
48797;SDS011;34610;44.096;39.070;2022-10-26T11:09:40;0.00;;;0.00;;
48797;SDS011;34610;44.096;39.070;2022-10-26T11:12:51;0.00;;;0.00;;
48797;SDS011;34610;44.096;39.070;2022-10-26T11:16:04;0.00;;;0.00;;
48797;SDS011;34610;44.096;39.070;2022-10-26T11:22:34;0.20;;;0.20;;
48797;SDS011;34610;44.096;39.070;2022-10-26T11:25:42;0.00;;;0.00;;
48797;SDS011;34610;44.096;39.070;2022-10-26T11:31:55;0.00;;;0.00;;
48797;SDS011;34610;44.096;39.070;2022-10-26T11:35:25;0.00;;;0.00;;
48797;SDS011;34610;44.096;39.070;2022-10-26T11:41:45;0.00;;;0.00;;
48797;SDS011;34610;44.096;39.070;2022-10-26T11:44:57;0.00;;;0.00;;
48797;SDS011;34610;44.096;39.070;2022-10-26T11:48:20;0.00;;;0.00;;
48797;SDS011;34610;44.096;39.070;2022-10-26T11:51:39;0.00;;;0.00;;
48797;SDS011;34610;44.096;39.070;2022-10-26T11:54:49;0.00;;;0.00;;
48797;SDS011;34610;44.096;39.070;2022-10-26T11:57:59;0.00;;;0.00;;
48797;SDS011;34610;44.096;39.070;2022-10-26T12:01:09;0.00;;;0.00;;
48797;SDS011;34610;44.096;39.070;2022-10-26T12:04:18;0.00;;;0.00;;
48797;SDS011;34610;44.096;39.070;2022-10-26T12:07:28;0.00;;;0.00;;
48797;SDS011;34610;44.096;39.070;2022-10-26T12:10:34;0.00;;;0.00;;
48797;SDS011;34610;44.096;39.070;2022-10-26T12:24:28;0.00;;;0.00;;
48797;SDS011;34610;44.096;39.070;2022-10-26T12:27:17;0.00;;;0.00;;
48797;SDS011;34610;44.096;39.070;2022-10-26T12:30:32;0.00;;;0.00;;
48797;SDS011;34610;44.096;39.070;2022-10-26T12:33:48;0.00;;;0.00;;
48797;SDS011;34610;44.096;39.070;2022-10-26T12:40:48;0.00;;;0.00;;
48797;SDS011;34610;44.096;39.070;2022-10-26T12:46:36;0.00;;;0.00;;
48797;SDS011;34610;44.096;39.070;2022-10-26T12:50:18;0.00;;;0.00;;
48797;SDS011;34610;44.096;39.070;2022-10-26T12:53:25;0.00;;;0.00;;
48797;SDS011;34610;44.096;39.070;2022-10-26T12:59:45;0.00;;;0.00;;
48797;SDS011;34610;44.096;39.070;2022-10-26T13:03:08;0.00;;;0.00;;
48797;SDS011;34610;44.096;39.070;2022-10-26T13:06:22;0.00;;;0.00;;
48797;SDS011;34610;44.096;39.070;2022-10-26T13:09:33;0.00;;;0.00;;
48797;SDS011;34610;44.096;39.070;2022-10-26T13:12:44;0.00;;;0.00;;
48797;SDS011;34610;44.096;39.070;2022-10-26T13:15:51;0.00;;;0.00;;
48797;SDS011;34610;44.096;39.070;2022-10-26T13:18:59;0.00;;;0.00;;
48797;SDS011;34610;44.096;39.070;2022-10-26T13:22:03;0.00;;;0.00;;
48797;SDS011;34610;44.096;39.070;2022-10-26T13:25:15;0.00;;;0.00;;
48797;SDS011;34610;44.096;39.070;2022-10-26T13:34:46;0.00;;;0.00;;
48797;SDS011;34610;44.096;39.070;2022-10-26T13:37:54;0.00;;;0.00;;
48797;SDS011;34610;44.096;39.070;2022-10-26T13:41:03;0.00;;;0.00;;
48797;SDS011;34610;44.096;39.070;2022-10-26T13:44:12;0.00;;;0.00;;
48797;SDS011;34610;44.096;39.070;2022-10-26T13:50:59;0.00;;;0.00;;
48797;SDS011;34610;44.096;39.070;2022-10-26T13:54:16;0.00;;;0.00;;
48797;SDS011;34610;44.096;39.070;2022-10-26T13:57:27;0.00;;;0.00;;
48797;SDS011;34610;44.096;39.070;2022-10-26T14:00:33;0.00;;;0.00;;
48797;SDS011;34610;44.096;39.070;2022-10-26T14:03:37;0.00;;;0.00;;
48797;SDS011;34610;44.096;39.070;2022-10-26T14:06:44;0.00;;;0.00;;
48797;SDS011;34610;44.096;39.070;2022-10-26T14:09:54;0.00;;;0.00;;
48797;SDS011;34610;44.096;39.070;2022-10-26T14:12:59;0.00;;;0.00;;
48797;SDS011;34610;44.096;39.070;2022-10-26T14:16:07;0.00;;;0.00;;
48797;SDS011;34610;44.096;39.070;2022-10-26T14:19:15;0.00;;;0.00;;
48797;SDS011;34610;44.096;39.070;2022-10-26T14:22:25;0.00;;;0.00;;
48797;SDS011;34610;44.096;39.070;2022-10-26T14:25:33;0.00;;;0.00;;
48797;SDS011;34610;44.096;39.070;2022-10-26T14:28:42;0.00;;;0.00;;
48797;SDS011;34610;44.096;39.070;2022-10-26T14:31:52;0.00;;;0.00;;
48797;SDS011;34610;44.096;39.070;2022-10-26T14:34:58;0.00;;;0.00;;
48797;SDS011;34610;44.096;39.070;2022-10-26T14:38:03;0.00;;;0.00;;
48797;SDS011;34610;44.096;39.070;2022-10-26T14:41:11;0.00;;;0.00;;
48797;SDS011;34610;44.096;39.070;2022-10-26T14:44:21;0.00;;;0.00;;
48797;SDS011;34610;44.096;39.070;2022-10-26T14:47:35;0.00;;;0.00;;
48797;SDS011;34610;44.096;39.070;2022-10-26T14:50:40;0.00;;;0.00;;
48797;SDS011;34610;44.096;39.070;2022-10-26T14:53:50;0.00;;;0.00;;
48797;SDS011;34610;44.096;39.070;2022-10-26T14:56:57;0.00;;;0.00;;
48797;SDS011;34610;44.096;39.070;2022-10-26T15:00:12;0.00;;;0.00;;
48797;SDS011;34610;44.096;39.070;2022-10-26T15:03:19;0.00;;;0.00;;
48797;SDS011;34610;44.096;39.070;2022-10-26T15:06:28;0.00;;;0.00;;
48797;SDS011;34610;44.096;39.070;2022-10-26T15:09:46;0.00;;;0.00;;
48797;SDS011;34610;44.096;39.070;2022-10-26T15:12:51;0.00;;;0.00;;
48797;SDS011;34610;44.096;39.070;2022-10-26T15:16:05;0.00;;;0.00;;
48797;SDS011;34610;44.096;39.070;2022-10-26T15:19:14;0.00;;;0.00;;
48797;SDS011;34610;44.096;39.070;2022-10-26T15:22:26;0.00;;;0.00;;
48797;SDS011;34610;44.096;39.070;2022-10-26T15:25:33;0.00;;;0.00;;
48797;SDS011;34610;44.096;39.070;2022-10-26T15:28:39;0.00;;;0.00;;
48797;SDS011;34610;44.096;39.070;2022-10-26T15:31:49;0.00;;;0.00;;
48797;SDS011;34610;44.096;39.070;2022-10-26T15:35:27;0.00;;;0.00;;
48797;SDS011;34610;44.096;39.070;2022-10-26T15:38:33;0.00;;;0.00;;
48797;SDS011;34610;44.096;39.070;2022-10-26T15:41:50;0.00;;;0.00;;
48797;SDS011;34610;44.096;39.070;2022-10-26T15:44:57;0.00;;;0.00;;
48797;SDS011;34610;44.096;39.070;2022-10-26T15:48:44;0.00;;;0.00;;
48797;SDS011;34610;44.096;39.070;2022-10-26T15:51:33;0.00;;;0.00;;
48797;SDS011;34610;44.096;39.070;2022-10-26T15:54:38;0.08;;;0.08;;
48797;SDS011;34610;44.096;39.070;2022-10-26T15:57:46;0.00;;;0.00;;
48797;SDS011;34610;44.096;39.070;2022-10-26T16:03:57;0.00;;;0.00;;
48797;SDS011;34610;44.096;39.070;2022-10-26T16:07:01;0.00;;;0.00;;
48797;SDS011;34610;44.096;39.070;2022-10-26T16:10:21;0.00;;;0.00;;
48797;SDS011;34610;44.096;39.070;2022-10-26T16:13:32;0.00;;;0.00;;
48797;SDS011;34610;44.096;39.070;2022-10-26T16:16:38;0.00;;;0.00;;
48797;SDS011;34610;44.096;39.070;2022-10-26T16:19:46;0.00;;;0.00;;
48797;SDS011;34610;44.096;39.070;2022-10-26T16:22:54;0.00;;;0.00;;
48797;SDS011;34610;44.096;39.070;2022-10-26T16:26:09;0.00;;;0.00;;
48797;SDS011;34610;44.096;39.070;2022-10-26T16:29:17;0.00;;;0.00;;
48797;SDS011;34610;44.096;39.070;2022-10-26T16:32:23;0.00;;;0.00;;
48797;SDS011;34610;44.096;39.070;2022-10-26T16:35:41;0.00;;;0.00;;
48797;SDS011;34610;44.096;39.070;2022-10-26T16:38:46;0.00;;;0.00;;
48797;SDS011;34610;44.096;39.070;2022-10-26T16:41:53;0.00;;;0.00;;
48797;SDS011;34610;44.096;39.070;2022-10-26T16:45:03;0.00;;;0.00;;
48797;SDS011;34610;44.096;39.070;2022-10-26T16:48:08;0.00;;;0.00;;
48797;SDS011;34610;44.096;39.070;2022-10-26T16:51:21;0.00;;;0.00;;
48797;SDS011;34610;44.096;39.070;2022-10-26T16:54:29;0.00;;;0.00;;
48797;SDS011;34610;44.096;39.070;2022-10-26T16:57:36;0.00;;;0.00;;
48797;SDS011;34610;44.096;39.070;2022-10-26T17:03:48;0.00;;;0.00;;
48797;SDS011;34610;44.096;39.070;2022-10-26T17:06:56;0.00;;;0.00;;
48797;SDS011;34610;44.096;39.070;2022-10-26T17:10:00;0.00;;;0.00;;
48797;SDS011;34610;44.096;39.070;2022-10-26T17:13:04;0.00;;;0.00;;
48797;SDS011;34610;44.096;39.070;2022-10-26T17:16:25;0.00;;;0.00;;
48797;SDS011;34610;44.096;39.070;2022-10-26T17:19:29;0.00;;;0.00;;
48797;SDS011;34610;44.096;39.070;2022-10-26T17:22:36;0.00;;;0.00;;
48797;SDS011;34610;44.096;39.070;2022-10-26T17:25:43;0.00;;;0.00;;
48797;SDS011;34610;44.096;39.070;2022-10-26T17:29:02;0.00;;;0.00;;
48797;SDS011;34610;44.096;39.070;2022-10-26T17:32:06;0.00;;;0.00;;
48797;SDS011;34610;44.096;39.070;2022-10-26T17:35:11;0.00;;;0.00;;
48797;SDS011;34610;44.096;39.070;2022-10-26T17:38:25;0.00;;;0.00;;
48797;SDS011;34610;44.096;39.070;2022-10-26T17:41:34;0.00;;;0.00;;
48797;SDS011;34610;44.096;39.070;2022-10-26T17:44:38;0.00;;;0.00;;
48797;SDS011;34610;44.096;39.070;2022-10-26T17:47:45;0.00;;;0.00;;
48797;SDS011;34610;44.096;39.070;2022-10-26T17:50:52;0.00;;;0.00;;
48797;SDS011;34610;44.096;39.070;2022-10-26T17:53:57;0.00;;;0.00;;
48797;SDS011;34610;44.096;39.070;2022-10-26T17:57:20;0.00;;;0.00;;
48797;SDS011;34610;44.096;39.070;2022-10-26T18:00:29;0.00;;;0.00;;
48797;SDS011;34610;44.096;39.070;2022-10-26T18:03:34;0.00;;;0.00;;
48797;SDS011;34610;44.096;39.070;2022-10-26T18:06:41;0.00;;;0.00;;
48797;SDS011;34610;44.096;39.070;2022-10-26T18:09:45;0.00;;;0.00;;
48797;SDS011;34610;44.096;39.070;2022-10-26T18:12:52;0.00;;;0.00;;
48797;SDS011;34610;44.096;39.070;2022-10-26T18:16:11;0.00;;;0.00;;
48797;SDS011;34610;44.096;39.070;2022-10-26T18:19:19;0.00;;;0.00;;
48797;SDS011;34610;44.096;39.070;2022-10-26T18:22:29;0.00;;;0.00;;
48797;SDS011;34610;44.096;39.070;2022-10-26T18:25:48;0.00;;;0.00;;
48797;SDS011;34610;44.096;39.070;2022-10-26T18:29:03;0.00;;;0.00;;
48797;SDS011;34610;44.096;39.070;2022-10-26T18:32:13;0.00;;;0.00;;
48797;SDS011;34610;44.096;39.070;2022-10-26T18:35:21;0.00;;;0.00;;
48797;SDS011;34610;44.096;39.070;2022-10-26T18:38:30;0.00;;;0.00;;
48797;SDS011;34610;44.096;39.070;2022-10-26T18:41:47;0.00;;;0.00;;
48797;SDS011;34610;44.096;39.070;2022-10-26T18:44:55;0.00;;;0.00;;
48797;SDS011;34610;44.096;39.070;2022-10-26T18:48:08;0.00;;;0.00;;
48797;SDS011;34610;44.096;39.070;2022-10-26T18:51:20;0.00;;;0.00;;
48797;SDS011;34610;44.096;39.070;2022-10-26T18:54:28;0.00;;;0.00;;
48797;SDS011;34610;44.096;39.070;2022-10-26T18:57:37;0.00;;;0.00;;
48797;SDS011;34610;44.096;39.070;2022-10-26T19:00:43;0.00;;;0.00;;
48797;SDS011;34610;44.096;39.070;2022-10-26T19:03:58;0.00;;;0.00;;
48797;SDS011;34610;44.096;39.070;2022-10-26T19:07:33;0.00;;;0.00;;
48797;SDS011;34610;44.096;39.070;2022-10-26T19:10:41;0.00;;;0.00;;
48797;SDS011;34610;44.096;39.070;2022-10-26T19:13:48;0.00;;;0.00;;
48797;SDS011;34610;44.096;39.070;2022-10-26T19:20:09;0.00;;;0.00;;
48797;SDS011;34610;44.096;39.070;2022-10-26T19:23:15;0.00;;;0.00;;
48797;SDS011;34610;44.096;39.070;2022-10-26T19:26:22;0.00;;;0.00;;
48797;SDS011;34610;44.096;39.070;2022-10-26T19:29:30;0.00;;;0.00;;
48797;SDS011;34610;44.096;39.070;2022-10-26T19:32:41;0.00;;;0.00;;
48797;SDS011;34610;44.096;39.070;2022-10-26T19:35:58;0.00;;;0.00;;
48797;SDS011;34610;44.096;39.070;2022-10-26T19:39:08;0.00;;;0.00;;
48797;SDS011;34610;44.096;39.070;2022-10-26T19:42:14;0.00;;;0.00;;
48797;SDS011;34610;44.096;39.070;2022-10-26T19:45:21;0.00;;;0.00;;
48797;SDS011;34610;44.096;39.070;2022-10-26T19:48:26;0.00;;;0.00;;
48797;SDS011;34610;44.096;39.070;2022-10-26T19:51:33;0.00;;;0.00;;
48797;SDS011;34610;44.096;39.070;2022-10-26T19:54:39;0.00;;;0.00;;
48797;SDS011;34610;44.096;39.070;2022-10-26T19:57:47;0.00;;;0.00;;
48797;SDS011;34610;44.096;39.070;2022-10-26T20:01:01;0.00;;;0.00;;
48797;SDS011;34610;44.096;39.070;2022-10-26T20:04:07;0.00;;;0.00;;
48797;SDS011;34610;44.096;39.070;2022-10-26T20:07:13;0.00;;;0.00;;
48797;SDS011;34610;44.096;39.070;2022-10-26T20:10:20;0.00;;;0.00;;
48797;SDS011;34610;44.096;39.070;2022-10-26T20:13:25;0.00;;;0.00;;
48797;SDS011;34610;44.096;39.070;2022-10-26T20:16:31;0.00;;;0.00;;
48797;SDS011;34610;44.096;39.070;2022-10-26T20:19:37;12.70;;;5.78;;
48797;SDS011;34610;44.096;39.070;2022-10-26T20:22:43;11.95;;;6.20;;
48797;SDS011;34610;44.096;39.070;2022-10-26T20:25:49;21.33;;;9.90;;
48797;SDS011;34610;44.096;39.070;2022-10-26T20:28:55;12.43;;;5.10;;
48797;SDS011;34610;44.096;39.070;2022-10-26T20:32:04;17.83;;;6.55;;
48797;SDS011;34610;44.096;39.070;2022-10-26T20:35:12;15.18;;;6.90;;
48797;SDS011;34610;44.096;39.070;2022-10-26T20:38:23;16.10;;;7.22;;
48797;SDS011;34610;44.096;39.070;2022-10-26T20:41:29;16.05;;;7.78;;
48797;SDS011;34610;44.096;39.070;2022-10-26T20:47:39;14.52;;;7.78;;
48797;SDS011;34610;44.096;39.070;2022-10-26T20:58:24;23.67;;;8.43;;
48797;SDS011;34610;44.096;39.070;2022-10-26T21:01:34;23.50;;;9.95;;